Torrington, Canada
Current Conditions -  °F | °C
As of 4:00 AM on Saturday 20 Dec 2014 (Local Time) from CYQF Reporting Station
Clear Clear  
Wind Chill: 16°   Ceiling: Unl
Heat Index: 16°   Visibility: 15mi
Dew Point: 14°   Wind: 3mph
Humidity: 93%   Direction: 210°SSW
Pressure: 29.7"   Gusts: NA
Location:  51.8°N, 113.6°W
Report Text: CYQF 201100Z 21003KT 15SM SKC M09/M10 A2970 RMK SLP110
Loading
Personal Weather Stations






























Interactive Weather Map New forecast layout! Learn more

10-Day Weather Forecast

Advertisements
Track Severe Weather on mobile